Terminal Aerodrome Forecast
Issued by NWS

Home | Current Version | Previous Version | Text Only | Print | Product List | Glossary On
Versions: 1 2 3 4 5 6 7 8 9 10 11 12 13 14 15 16
682
FTUS44 KLZK 250333 AAA
TAFLLQ
TAF AMD
KLLQ 250333Z 2504/2524 17012G25KT P6SM VCTS SCT035CB OVC050
      TEMPO 2504/2506 VRB20G40KT 2SM +TSRA BR OVC025CB
     FM250600 17012G22KT 5SM -TSRA BR BKN025CB OVC050
      TEMPO 2506/2509 VRB15G35KT 2SM +TSRA BR OVC025CB
     FM250900 19010G20KT P6SM VCSH SCT020 OVC050
     FM251500 23012G22KT P6SM BKN050 BKN150=

USA.gov is the U.S. government's official web portal to all federal, state and local government web resources and services.